Birkbeck, Illinois
Current Conditions -  °F | °C
As of 10:15 PM on Thursday 27 Nov 2014 (Local Time) from KAAA Reporting Station
Clear Clear  
Wind Chill: 12°   Ceiling: Unl
Heat Index: 12°   Visibility: 10mi
Dew Point:   Wind: 0mph
Humidity: 84%   Direction: NA
Pressure: 30.46"   Gusts: NA
Location:  40.143°N, 88.9637°W
Report Text: KAAA 280415Z AUTO 00000KT 10SM CLR M11/M13 A3046 RMK AO2 T11101132
Loading
Personal Weather Stations






























Interactive Weather Map New forecast layout! Learn more

10-Day Weather Forecast

Advertisements
Track Severe Weather on mobile